| time (UTC) | temp F | wind direction | speed MPH | gust MPH | rain 1hr in | rain 24hr in | rain mn in | humidity % | barometer mb |
| 20260502181220 | 72 | 282 | 0.0 | 4.0 | 0.00 | 0.00 | 0.00 | 59 | 1013.7 |
| 20260502180211 | 73 | 282 | 2.0 | 5.0 | 0.00 | 0.00 | 0.00 | 58 | 1013.8 |
| 20260502170208 | 73 | 303 | 4.0 | 9.0 | 0.00 | 0.00 | 0.00 | 58 | 1014.1 |
| 20260502164217 | 73 | 269 | 5.0 | 7.0 | 0.00 | 0.00 | 0.00 | 58 | 1014.4 |
| 20260502163211 | 73 | 193 | 2.0 | 7.0 | 0.00 | 0.00 | 0.00 | 59 | 1014.5 |
| 20260502162210 | 73 | 275 | 3.0 | 11.0 | 0.00 | 0.00 | 0.00 | 58 | 1014.5 |
| 20260502161718 | 73 | 269 | 2.0 | 11.0 | 0.00 | 0.00 | 0.00 | 58 | 1014.6 |
| 20260502160714 | 73 | 278 | 3.0 | 9.0 | 0.00 | 0.00 | 0.00 | 58 | 1014.6 |
| 20260502160210 | 73 | 300 | 2.0 | 6.0 | 0.00 | 0.00 | 0.00 | 58 | 1014.6 |
| 20260502151711 | 73 | 286 | 4.0 | 9.0 | 0.00 | 0.00 | 0.00 | 57 | 1015.1 |
| 20260502151215 | 73 | 245 | 0.0 | 12.0 | 0.00 | 0.00 | 0.00 | 57 | 1015.2 |
| 20260502150711 | 74 | 269 | 2.0 | 12.0 | 0.00 | 0.00 | 0.00 | 56 | 1015.3 |
| 20260502150215 | 74 | 290 | 4.0 | 10.0 | 0.00 | 0.00 | 0.00 | 56 | 1015.3 |
| 20260502130712 | 75 | 247 | 2.0 | 12.0 | 0.00 | 0.00 | 0.00 | 49 | 1015.8 |
| 20260502130206 | 76 | 258 | 2.0 | 12.0 | 0.00 | 0.00 | 0.00 | 50 | 1015.9 |
| 20260502123716 | 76 | 179 | 4.0 | 10.0 | 0.00 | 0.00 | 0.00 | 48 | 1016.0 |
| 20260502123212 | 78 | 0 | 2.0 | 9.0 | 0.00 | 0.00 | 0.00 | 47 | 1016.0 |
| 20260502122707 | 77 | 207 | 3.0 | 9.0 | 0.00 | 0.00 | 0.00 | 50 | 1016.1 |
| 20260502122210 | 76 | 195 | 2.0 | 9.0 | 0.00 | 0.00 | 0.00 | 49 | 1016.1 |
| 20260502121714 | 77 | 299 | 4.0 | 11.0 | 0.00 | 0.00 | 0.00 | 48 | 1016.2 |
| 20260502121218 | 77 | 247 | 4.0 | 11.0 | 0.00 | 0.00 | 0.00 | 48 | 1016.3 |
| 20260502120214 | 77 | 180 | 2.0 | 11.0 | 0.00 | 0.00 | 0.00 | 46 | 1016.3 |
| 20260502115718 | 77 | 203 | 3.0 | 11.0 | 0.00 | 0.00 | 0.00 | 45 | 1016.4 |
| 20260502115210 | 77 | 186 | 4.0 | 9.0 | 0.00 | 0.00 | 0.00 | 46 | 1016.3 |
| 20260502114713 | 76 | 192 | 4.0 | 9.0 | 0.00 | 0.00 | 0.00 | 51 | 1016.4 |
| 20260502113713 | 77 | 213 | 4.0 | 7.0 | 0.00 | 0.00 | 0.00 | 48 | 1016.5 |
| 20260502112713 | 76 | 221 | 2.0 | 9.0 | 0.00 | 0.00 | 0.00 | 47 | 1016.6 |
| 20260502112216 | 76 | 165 | 3.0 | 10.0 | 0.00 | 0.00 | 0.00 | 49 | 1016.7 |
| 20260502110718 | 76 | 224 | 3.0 | 10.0 | 0.00 | 0.00 | 0.00 | 47 | 1016.8 |
| 20260502105218 | 76 | 155 | 2.0 | 7.0 | 0.00 | 0.00 | 0.00 | 45 | 1016.9 |
| 20260502104716 | 76 | 193 | 4.0 | 10.0 | 0.00 | 0.00 | 0.00 | 45 | 1016.9 |
| 20260502104208 | 75 | 203 | 3.0 | 10.0 | 0.00 | 0.00 | 0.00 | 43 | 1016.9 |
| 20260502103714 | 75 | 190 | 2.0 | 10.0 | 0.00 | 0.00 | 0.00 | 47 | 1017.0 |
| 20260502103232 | 75 | 189 | 2.0 | 6.0 | 0.00 | 0.00 | 0.00 | 41 | 1017.0 |
| 20260502101725 | 74 | 183 | 3.0 | 7.0 | 0.00 | 0.00 | 0.00 | 43 | 1017.0 |
| 20260502101207 | 73 | 162 | 1.0 | 9.0 | 0.00 | 0.00 | 0.00 | 44 | 1017.2 |
| 20260502100211 | 71 | 257 | 1.0 | 9.0 | 0.00 | 0.00 | 0.00 | 44 | 1017.3 |
| 20260502090707 | 71 | 255 | 2.0 | 6.0 | 0.00 | 0.00 | 0.00 | 44 | 1017.4 |
| 20260502071205 | 63 | 176 | 1.0 | 4.0 | 0.00 | 0.00 | 0.00 | 58 | 1018.0 |
| 20260502070711 | 62 | 175 | 1.0 | 4.0 | 0.00 | 0.00 | 0.00 | 59 | 1018.0 |
| 20260502070216 | 62 | 179 | 0.0 | 3.0 | 0.00 | 0.00 | 0.00 | 59 | 1018.1 |
| 20260502065706 | 61 | 179 | 0.0 | 3.0 | 0.00 | 0.00 | 0.00 | 60 | 1018.1 |
| 20260502065216 | 61 | 179 | 1.0 | 3.0 | 0.00 | 0.00 | 0.00 | 60 | 1018.1 |
| 20260502064716 | 60 | 155 | 1.0 | 3.0 | 0.00 | 0.00 | 0.00 | 61 | 1018.2 |
| 20260502064217 | 60 | 152 | 0.0 | 3.0 | 0.00 | 0.00 | 0.00 | 63 | 1018.2 |
| 20260502063712 | 59 | 151 | 0.0 | 3.0 | 0.00 | 0.00 | 0.00 | 62 | 1018.2 |
| 20260502063209 | 59 | 151 | 1.0 | 3.0 | 0.00 | 0.00 | 0.00 | 65 | 1018.2 |
| 20260502062708 | 58 | 151 | 0.0 | 3.0 | 0.00 | 0.00 | 0.00 | 64 | 1018.2 |
| 20260502062212 | 58 | 151 | 1.0 | 3.0 | 0.00 | 0.00 | 0.00 | 67 | 1018.2 |
| 20260502061712 | 57 | 128 | 1.0 | 3.0 | 0.00 | 0.00 | 0.00 | 67 | 1018.2 |
| 20260502061218 | 57 | 128 | 0.0 | 3.0 | 0.00 | 0.00 | 0.00 | 67 | 1018.3 |
| 20260502060720 | 57 | 128 | 0.0 | 3.0 | 0.00 | 0.00 | 0.00 | 66 | 1018.3 |
| 20260502060214 | 56 | 130 | 0.0 | 2.0 | 0.00 | 0.00 | 0.00 | 67 | 1018.2 |
| 20260502055711 | 55 | 127 | 0.0 | 2.0 | 0.00 | 0.00 | 0.00 | 68 | 1018.3 |
| 20260502055209 | 55 | 127 | 0.0 | 2.0 | 0.00 | 0.00 | 0.00 | 69 | 1018.3 |
| 20260502054707 | 55 | 127 | 0.0 | 2.0 | 0.00 | 0.00 | 0.00 | 68 | 1018.3 |
| 20260502054212 | 54 | 127 | 0.0 | 1.0 | 0.00 | 0.00 | 0.00 | 69 | 1018.3 |
| 20260502053717 | 53 | 127 | 0.0 | 1.0 | 0.00 | 0.00 | 0.00 | 71 | 1018.4 |
| 20260502052713 | 51 | 127 | 0.0 | 0.0 | 0.00 | 0.00 | 0.00 | 74 | 1018.4 |
| 20260502051707 | 51 | 127 | 0.0 | 2.0 | 0.00 | 0.00 | 0.00 | 74 | 1018.4 |
| 20260502051211 | 50 | 127 | 0.0 | 2.0 | 0.00 | 0.00 | 0.00 | 76 | 1018.4 |
| 20260502050711 | 49 | 127 | 0.0 | 2.0 | 0.00 | 0.00 | 0.00 | 78 | 1018.4 |
| 20260502045211 | 47 | 127 | 0.0 | 1.0 | 0.00 | 0.00 | 0.00 | 80 | 1018.4 |
| 20260502044719 | 47 | 127 | 0.0 | 1.0 | 0.00 | 0.00 | 0.00 | 80 | 1018.4 |
| 20260502044215 | 47 | 127 | 0.0 | 2.0 | 0.00 | 0.00 | 0.00 | 80 | 1018.4 |
| 20260502043715 | 47 | 127 | 0.0 | 2.0 | 0.00 | 0.00 | 0.00 | 80 | 1018.4 |
| 20260502043220 | 46 | 127 | 0.0 | 1.0 | 0.00 | 0.00 | 0.00 | 80 | 1018.4 |
| 20260502042718 | 46 | 127 | 0.0 | 1.0 | 0.00 | 0.00 | 0.00 | 80 | 1018.4 |
| 20260502042215 | 46 | 127 | 0.0 | 1.0 | 0.00 | 0.00 | 0.00 | 80 | 1018.4 |
| 20260502041713 | 46 | 127 | 0.0 | 1.0 | 0.00 | 0.00 | 0.00 | 80 | 1018.5 |
| 20260502041223 | 46 | 127 | 0.0 | 1.0 | 0.00 | 0.00 | 0.00 | 80 | 1018.4 |
| 20260502040710 | 46 | 127 | 0.0 | 1.0 | 0.00 | 0.00 | 0.00 | 80 | 1018.5 |
| 20260502040212 | 46 | 127 | 0.0 | 0.0 | 0.00 | 0.00 | 0.00 | 80 | 1018.5 |
| 20260502035711 | 46 | 127 | 0.0 | 0.0 | 0.00 | 0.00 | 0.00 | 80 | 1018.5 |
| 20260502035214 | 46 | 127 | 0.0 | 1.0 | 0.00 | 0.00 | 0.00 | 80 | 1018.6 |
| 20260502034707 | 46 | 127 | 0.0 | 1.0 | 0.00 | 0.00 | 0.00 | 80 | 1018.7 |
| 20260502034208 | 47 | 127 | 0.0 | 1.0 | 0.00 | 0.00 | 0.00 | 80 | 1018.7 |
| 20260502033714 | 47 | 127 | 0.0 | 1.0 | 0.00 | 0.00 | 0.00 | 80 | 1018.7 |
| 20260502032709 | 47 | 127 | 0.0 | 1.0 | 0.00 | 0.00 | 0.00 | 79 | 1018.8 |
| 20260502032206 | 47 | 127 | 0.0 | 1.0 | 0.00 | 0.00 | 0.00 | 79 | 1018.7 |
| 20260502031705 | 47 | 127 | 0.0 | 1.0 | 0.00 | 0.00 | 0.00 | 79 | 1018.8 |
| 20260502031213 | 47 | 127 | 0.0 | 1.0 | 0.00 | 0.00 | 0.00 | 79 | 1018.8 |
| 20260502030708 | 47 | 127 | 0.0 | 1.0 | 0.00 | 0.00 | 0.00 | 79 | 1018.8 |
| 20260502030216 | 47 | 127 | 0.0 | 1.0 | 0.00 | 0.00 | 0.00 | 79 | 1018.8 |
| 20260502025715 | 47 | 127 | 0.0 | 1.0 | 0.00 | 0.00 | 0.00 | 79 | 1018.9 |
| 20260502025215 | 47 | 127 | 0.0 | 1.0 | 0.00 | 0.00 | 0.00 | 79 | 1018.9 |
| 20260502024717 | 47 | 127 | 0.0 | 1.0 | 0.00 | 0.00 | 0.00 | 79 | 1018.9 |
| 20260502024219 | 47 | 127 | 0.0 | 1.0 | 0.00 | 0.00 | 0.00 | 78 | 1018.9 |
| 20260502023215 | 48 | 127 | 0.0 | 0.0 | 0.00 | 0.00 | 0.00 | 78 | 1019.0 |
| 20260502022213 | 48 | 127 | 0.0 | 0.0 | 0.00 | 0.00 | 0.00 | 78 | 1019.1 |
| 20260502021216 | 48 | 127 | 0.0 | 0.0 | 0.00 | 0.00 | 0.00 | 77 | 1019.2 |
| 20260502020707 | 48 | 127 | 0.0 | 0.0 | 0.00 | 0.00 | 0.00 | 77 | 1019.2 |
| 20260502020212 | 49 | 127 | 0.0 | 0.0 | 0.00 | 0.00 | 0.00 | 77 | 1019.2 |
| 20260502015708 | 49 | 127 | 0.0 | 0.0 | 0.00 | 0.00 | 0.00 | 77 | 1019.3 |
| 20260502015217 | 49 | 127 | 0.0 | 0.0 | 0.00 | 0.00 | 0.00 | 76 | 1019.3 |
| 20260502014710 | 49 | 127 | 0.0 | 0.0 | 0.00 | 0.00 | 0.00 | 76 | 1019.4 |
| 20260502014206 | 49 | 127 | 0.0 | 0.0 | 0.00 | 0.00 | 0.00 | 76 | 1019.4 |
| 20260502013715 | 49 | 127 | 0.0 | 0.0 | 0.00 | 0.00 | 0.00 | 76 | 1019.4 |
| 20260502013208 | 49 | 127 | 0.0 | 0.0 | 0.00 | 0.00 | 0.00 | 75 | 1019.5 |
| 20260502012719 | 50 | 127 | 0.0 | 0.0 | 0.00 | 0.00 | 0.00 | 75 | 1019.5 |
| 20260502012218 | 50 | 127 | 0.0 | 0.0 | 0.00 | 0.00 | 0.00 | 75 | 1019.6 |
| 20260502011717 | 50 | 127 | 0.0 | 0.0 | 0.00 | 0.00 | 0.00 | 75 | 1019.7 |
| 20260502011211 | 50 | 127 | 0.0 | 0.0 | 0.00 | 0.00 | 0.00 | 74 | 1019.7 |
| 20260502010708 | 50 | 127 | 0.0 | 0.0 | 0.00 | 0.00 | 0.00 | 75 | 1019.8 |
| 20260502010213 | 50 | 127 | 0.0 | 0.0 | 0.00 | 0.00 | 0.00 | 75 | 1019.8 |
| 20260502005719 | 50 | 127 | 0.0 | 1.0 | 0.00 | 0.00 | 0.00 | 75 | 1019.9 |
| 20260502005207 | 50 | 127 | 0.0 | 1.0 | 0.00 | 0.00 | 0.00 | 75 | 1019.9 |
| 20260502004710 | 50 | 127 | 0.0 | 1.0 | 0.00 | 0.00 | 0.00 | 75 | 1020.0 |
| 20260502004213 | 50 | 127 | 0.0 | 2.0 | 0.00 | 0.00 | 0.00 | 74 | 1020.0 |
| 20260502003710 | 50 | 127 | 0.0 | 2.0 | 0.00 | 0.00 | 0.00 | 74 | 1020.1 |
| 20260502003220 | 51 | 127 | 0.0 | 2.0 | 0.00 | 0.00 | 0.00 | 74 | 1020.1 |
| 20260502002708 | 51 | 127 | 0.0 | 1.0 | 0.00 | 0.00 | 0.00 | 74 | 1020.1 |
| 20260502002212 | 51 | 127 | 0.0 | 0.0 | 0.00 | 0.00 | 0.00 | 73 | 1020.3 |
| 20260502001713 | 51 | 127 | 0.0 | 0.0 | 0.00 | 0.00 | 0.00 | 73 | 1020.3 |
| 20260502001219 | 51 | 127 | 0.0 | 0.0 | 0.00 | 0.00 | 0.00 | 72 | 1020.3 |
| 20260502000717 | 51 | 127 | 0.0 | 0.0 | 0.00 | 0.00 | 0.00 | 72 | 1020.4 |
| 20260502000212 | 51 | 127 | 0.0 | 0.0 | 0.00 | 0.00 | 0.00 | 72 | 1020.4 |
| 20260501235706 | 51 | 127 | 0.0 | 0.0 | 0.00 | 0.00 | 0.00 | 72 | 1020.3 |
| 20260501235219 | 52 | 127 | 0.0 | 0.0 | 0.00 | 0.00 | 0.00 | 71 | 1020.4 |
| 20260501234708 | 52 | 127 | 0.0 | 0.0 | 0.00 | 0.00 | 0.00 | 71 | 1020.5 |
| 20260501234208 | 52 | 127 | 0.0 | 0.0 | 0.00 | 0.00 | 0.00 | 71 | 1020.5 |
| 20260501233707 | 52 | 127 | 0.0 | 0.0 | 0.00 | 0.00 | 0.00 | 70 | 1020.5 |
| 20260501233206 | 52 | 127 | 0.0 | 0.0 | 0.00 | 0.00 | 0.00 | 70 | 1020.5 |
| 20260501232710 | 52 | 127 | 0.0 | 0.0 | 0.00 | 0.00 | 0.00 | 70 | 1020.5 |
| 20260501232211 | 53 | 127 | 0.0 | 0.0 | 0.00 | 0.00 | 0.00 | 69 | 1020.5 |
| 20260501231716 | 53 | 127 | 0.0 | 0.0 | 0.00 | 0.00 | 0.00 | 69 | 1020.5 |
| 20260501230720 | 53 | 127 | 0.0 | 1.0 | 0.00 | 0.00 | 0.00 | 68 | 1020.5 |
| 20260501230210 | 53 | 127 | 0.0 | 1.0 | 0.00 | 0.00 | 0.00 | 68 | 1020.6 |
| 20260501225714 | 54 | 127 | 0.0 | 1.0 | 0.00 | 0.00 | 0.00 | 67 | 1020.7 |
| 20260501225219 | 54 | 127 | 0.0 | 0.0 | 0.00 | 0.00 | 0.00 | 67 | 1020.7 |
| 20260501224211 | 54 | 127 | 0.0 | 0.0 | 0.00 | 0.00 | 0.00 | 67 | 1020.7 |
| 20260501223706 | 55 | 127 | 0.0 | 0.0 | 0.00 | 0.00 | 0.00 | 67 | 1020.7 |
| 20260501223207 | 55 | 127 | 0.0 | 0.0 | 0.00 | 0.00 | 0.00 | 67 | 1020.8 |
| 20260501222707 | 55 | 127 | 0.0 | 0.0 | 0.00 | 0.00 | 0.00 | 66 | 1020.7 |
| 20260501221220 | 56 | 127 | 0.0 | 0.0 | 0.00 | 0.00 | 0.00 | 66 | 1020.8 |
| 20260501220708 | 56 | 127 | 0.0 | 0.0 | 0.00 | 0.00 | 0.00 | 66 | 1020.9 |
| 20260501220235 | 56 | 127 | 0.0 | 0.0 | 0.00 | 0.00 | 0.00 | 64 | 1020.9 |
| 20260501213719 | 58 | 127 | 0.0 | 1.0 | 0.00 | 0.00 | 0.00 | 61 | 1021.0 |
| 20260501213217 | 58 | 127 | 0.0 | 0.0 | 0.00 | 0.00 | 0.00 | 61 | 1021.0 |
| 20260501212219 | 59 | 127 | 0.0 | 0.0 | 0.00 | 0.00 | 0.00 | 59 | 1021.0 |
| 20260501211707 | 59 | 127 | 0.0 | 1.0 | 0.00 | 0.00 | 0.00 | 59 | 1021.0 |
| 20260501211209 | 59 | 127 | 0.0 | 1.0 | 0.00 | 0.00 | 0.00 | 59 | 1021.0 |
| 20260501210712 | 60 | 127 | 0.0 | 1.0 | 0.00 | 0.00 | 0.00 | 58 | 1020.9 |
| 20260501210218 | 60 | 127 | 0.0 | 1.0 | 0.00 | 0.00 | 0.00 | 58 | 1021.0 |
| 20260501205710 | 60 | 127 | 0.0 | 1.0 | 0.00 | 0.00 | 0.00 | 57 | 1021.0 |
| 20260501205209 | 60 | 127 | 0.0 | 2.0 | 0.00 | 0.00 | 0.00 | 57 | 1021.0 |
| 20260501204706 | 60 | 127 | 0.0 | 2.0 | 0.00 | 0.00 | 0.00 | 57 | 1021.0 |
| 20260501204208 | 61 | 127 | 0.0 | 2.0 | 0.00 | 0.00 | 0.00 | 56 | 1021.1 |
| 20260501203710 | 61 | 127 | 1.0 | 2.0 | 0.00 | 0.00 | 0.00 | 55 | 1021.1 |
| 20260501203212 | 61 | 127 | 0.0 | 2.0 | 0.00 | 0.00 | 0.00 | 55 | 1021.2 |
| 20260501202214 | 62 | 127 | 0.0 | 2.0 | 0.00 | 0.00 | 0.00 | 54 | 1021.1 |
| 20260501201713 | 62 | 127 | 1.0 | 2.0 | 0.00 | 0.00 | 0.00 | 54 | 1021.2 |
| 20260501201209 | 62 | 127 | 0.0 | 2.0 | 0.00 | 0.00 | 0.00 | 54 | 1021.2 |
| 20260501200718 | 62 | 127 | 0.0 | 2.0 | 0.00 | 0.00 | 0.00 | 53 | 1021.2 |
| 20260501195715 | 63 | 127 | 0.0 | 2.0 | 0.00 | 0.00 | 0.00 | 51 | 1021.2 |
| 20260501195212 | 64 | 127 | 0.0 | 2.0 | 0.00 | 0.00 | 0.00 | 51 | 1021.2 |
| 20260501194711 | 64 | 127 | 0.0 | 2.0 | 0.00 | 0.00 | 0.00 | 50 | 1021.2 |
| 20260501193718 | 65 | 127 | 0.0 | 2.0 | 0.00 | 0.00 | 0.00 | 49 | 1021.3 |
| 20260501193205 | 65 | 127 | 0.0 | 2.0 | 0.00 | 0.00 | 0.00 | 48 | 1021.2 |
| 20260501192712 | 66 | 127 | 0.0 | 2.0 | 0.00 | 0.00 | 0.00 | 48 | 1021.3 |
| 20260501192211 | 66 | 127 | 0.0 | 2.0 | 0.00 | 0.00 | 0.00 | 47 | 1021.2 |
| 20260501191713 | 67 | 127 | 0.0 | 2.0 | 0.00 | 0.00 | 0.00 | 47 | 1021.2 |
| 20260501191209 | 67 | 127 | 0.0 | 2.0 | 0.00 | 0.00 | 0.00 | 46 | 1021.3 |
| 20260501190707 | 68 | 127 | 1.0 | 2.0 | 0.00 | 0.00 | 0.00 | 45 | 1021.3 |
| 20260501190216 | 68 | 127 | 1.0 | 2.0 | 0.00 | 0.00 | 0.00 | 44 | 1021.3 |
| 20260501185220 | 69 | 127 | 0.0 | 1.0 | 0.00 | 0.00 | 0.00 | 43 | 1021.4 |
| 20260501184711 | 70 | 127 | 0.0 | 1.0 | 0.00 | 0.00 | 0.00 | 42 | 1021.3 |
| 20260501184211 | 70 | 127 | 0.0 | 1.0 | 0.00 | 0.00 | 0.00 | 42 | 1021.3 |
| 20260501183720 | 71 | 127 | 0.0 | 1.0 | 0.00 | 0.00 | 0.00 | 41 | 1021.4 |
| 20260501183212 | 71 | 127 | 0.0 | 6.0 | 0.00 | 0.00 | 0.00 | 40 | 1021.4 |
| 20260501182711 | 71 | 127 | 0.0 | 6.0 | 0.00 | 0.00 | 0.00 | 39 | 1021.3 |
| 20260501182213 | 71 | 127 | 0.0 | 6.0 | 0.00 | 0.00 | 0.00 | 39 | 1021.3 |
| 20260501181719 | 72 | 131 | 1.0 | 4.0 | 0.00 | 0.00 | 0.00 | 38 | 1021.3 |